sensor_id;sensor_type;location;lat;lon;timestamp;pressure;altitude;pressure_sealevel;temperature;humidity
12468;BME280;57850;52.922;6.256;2023-04-22T00:00:58;100744.59;;;14.84;100.00
12468;BME280;57850;52.922;6.256;2023-04-22T00:03:27;100760.34;;;14.84;100.00
12468;BME280;57850;52.922;6.256;2023-04-22T00:05:54;100801.91;;;14.61;100.00
12468;BME280;57850;52.922;6.256;2023-04-22T00:08:20;100756.72;;;14.87;100.00
12468;BME280;57850;52.922;6.256;2023-04-22T00:10:47;100844.47;;;14.34;100.00
12468;BME280;57850;52.922;6.256;2023-04-22T00:13:13;100820.72;;;14.53;100.00
12468;BME280;57850;52.922;6.256;2023-04-22T00:15:40;100808.41;;;14.54;100.00
12468;BME280;57850;52.922;6.256;2023-04-22T00:18:06;100798.69;;;14.56;100.00
12468;BME280;57850;52.922;6.256;2023-04-22T00:20:39;100821.34;;;14.41;100.00
12468;BME280;57850;52.922;6.256;2023-04-22T00:23:07;100808.16;;;14.42;100.00
12468;BME280;57850;52.922;6.256;2023-04-22T00:25:33;100783.44;;;14.46;100.00
12468;BME280;57850;52.922;6.256;2023-04-22T00:28:00;100782.66;;;14.44;100.00
12468;BME280;57850;52.922;6.256;2023-04-22T00:30:26;100794.84;;;14.28;100.00
12468;BME280;57850;52.922;6.256;2023-04-22T00:32:53;100786.06;;;14.29;100.00
12468;BME280;57850;52.922;6.256;2023-04-22T00:35:20;100767.78;;;14.28;100.00
12468;BME280;57850;52.922;6.256;2023-04-22T00:37:48;100817.38;;;14.00;100.00
12468;BME280;57850;52.922;6.256;2023-04-22T00:40:14;100828.06;;;13.95;100.00
12468;BME280;57850;52.922;6.256;2023-04-22T00:42:42;100833.09;;;13.82;100.00
12468;BME280;57850;52.922;6.256;2023-04-22T00:45:10;100809.63;;;13.79;100.00
12468;BME280;57850;52.922;6.256;2023-04-22T00:47:37;100822.75;;;13.79;100.00
12468;BME280;57850;52.922;6.256;2023-04-22T00:50:05;100835.47;;;13.70;100.00
12468;BME280;57850;52.922;6.256;2023-04-22T00:52:32;100802.63;;;13.80;100.00
12468;BME280;57850;52.922;6.256;2023-04-22T00:55:00;100794.00;;;13.78;100.00
12468;BME280;57850;52.922;6.256;2023-04-22T00:57:29;100816.09;;;13.72;100.00
12468;BME280;57850;52.922;6.256;2023-04-22T00:59:56;100811.78;;;13.88;100.00
12468;BME280;57850;52.922;6.256;2023-04-22T01:02:25;100811.78;;;13.88;100.00
12468;BME280;57850;52.922;6.256;2023-04-22T01:04:53;100799.47;;;13.90;100.00
12468;BME280;57850;52.922;6.256;2023-04-22T01:07:19;100813.09;;;13.80;100.00
12468;BME280;57850;52.922;6.256;2023-04-22T01:09:46;100823.75;;;13.77;100.00
12468;BME280;57850;52.922;6.256;2023-04-22T01:12:14;100825.06;;;13.68;100.00
12468;BME280;57850;52.922;6.256;2023-04-22T01:14:41;100824.13;;;13.69;100.00
12468;BME280;57850;52.922;6.256;2023-04-22T01:17:08;100835.44;;;13.53;100.00
12468;BME280;57850;52.922;6.256;2023-04-22T01:19:36;100820.56;;;13.53;100.00
12468;BME280;57850;52.922;6.256;2023-04-22T01:22:03;100815.53;;;13.49;100.00
12468;BME280;57850;52.922;6.256;2023-04-22T01:24:33;100832.47;;;13.41;100.00
12468;BME280;57850;52.922;6.256;2023-04-22T01:27:00;100830.53;;;13.28;100.00
12468;BME280;57850;52.922;6.256;2023-04-22T01:29:27;100820.44;;;13.37;100.00
12468;BME280;57850;52.922;6.256;2023-04-22T01:31:54;100804.28;;;13.47;100.00
12468;BME280;57850;52.922;6.256;2023-04-22T01:34:21;100813.06;;;13.46;100.00
12468;BME280;57850;52.922;6.256;2023-04-22T01:36:48;100816.75;;;13.41;100.00
12468;BME280;57850;52.922;6.256;2023-04-22T01:39:16;100820.69;;;13.50;100.00
12468;BME280;57850;52.922;6.256;2023-04-22T01:41:45;100810.16;;;13.52;100.00
12468;BME280;57850;52.922;6.256;2023-04-22T01:44:11;100816.66;;;13.62;100.00
12468;BME280;57850;52.922;6.256;2023-04-22T01:46:38;100832.28;;;13.63;100.00
12468;BME280;57850;52.922;6.256;2023-04-22T01:49:04;100829.50;;;13.66;100.00
12468;BME280;57850;52.922;6.256;2023-04-22T01:51:32;100825.81;;;13.70;100.00
12468;BME280;57850;52.922;6.256;2023-04-22T01:53:58;100845.38;;;13.46;100.00
12468;BME280;57850;52.922;6.256;2023-04-22T01:56:28;100842.19;;;13.39;100.00
12468;BME280;57850;52.922;6.256;2023-04-22T01:58:55;100832.34;;;13.45;100.00
12468;BME280;57850;52.922;6.256;2023-04-22T02:01:22;100877.91;;;13.03;100.00
12468;BME280;57850;52.922;6.256;2023-04-22T02:03:48;100885.53;;;12.70;100.00
12468;BME280;57850;52.922;6.256;2023-04-22T02:06:15;100887.34;;;12.50;100.00
12468;BME280;57850;52.922;6.256;2023-04-22T02:08:42;100840.28;;;12.68;100.00
12468;BME280;57850;52.922;6.256;2023-04-22T02:11:08;100818.41;;;12.88;100.00
12468;BME280;57850;52.922;6.256;2023-04-22T02:13:36;100791.63;;;13.19;100.00
12468;BME280;57850;52.922;6.256;2023-04-22T02:16:04;100791.22;;;13.28;100.00
12468;BME280;57850;52.922;6.256;2023-04-22T02:18:32;100793.31;;;13.38;100.00
12468;BME280;57850;52.922;6.256;2023-04-22T02:20:59;100806.56;;;13.35;100.00
12468;BME280;57850;52.922;6.256;2023-04-22T02:23:26;100816.56;;;13.27;100.00
12468;BME280;57850;52.922;6.256;2023-04-22T02:25:54;100799.09;;;13.28;100.00
12468;BME280;57850;52.922;6.256;2023-04-22T02:28:20;100809.84;;;13.22;100.00
12468;BME280;57850;52.922;6.256;2023-04-22T02:30:47;100806.25;;;13.24;100.00
12468;BME280;57850;52.922;6.256;2023-04-22T02:33:15;100800.34;;;13.19;100.00
12468;BME280;57850;52.922;6.256;2023-04-22T02:35:41;100799.50;;;13.19;100.00
12468;BME280;57850;52.922;6.256;2023-04-22T02:38:09;100792.44;;;13.21;100.00
12468;BME280;57850;52.922;6.256;2023-04-22T02:40:36;100796.25;;;13.14;100.00
12468;BME280;57850;52.922;6.256;2023-04-22T02:43:03;100813.81;;;12.93;100.00
12468;BME280;57850;52.922;6.256;2023-04-22T02:45:29;100868.63;;;12.39;100.00
12468;BME280;57850;52.922;6.256;2023-04-22T02:47:56;100859.84;;;12.19;100.00
12468;BME280;57850;52.922;6.256;2023-04-22T02:50:24;100845.59;;;12.26;100.00
12468;BME280;57850;52.922;6.256;2023-04-22T02:52:50;100842.91;;;12.28;100.00
12468;BME280;57850;52.922;6.256;2023-04-22T02:55:17;100838.66;;;12.25;100.00
12468;BME280;57850;52.922;6.256;2023-04-22T02:57:43;100826.66;;;12.21;100.00
12468;BME280;57850;52.922;6.256;2023-04-22T03:00:10;100812.47;;;12.27;100.00
12468;BME280;57850;52.922;6.256;2023-04-22T03:02:37;100791.75;;;12.41;100.00
12468;BME280;57850;52.922;6.256;2023-04-22T03:05:05;100787.47;;;12.40;100.00
12468;BME280;57850;52.922;6.256;2023-04-22T03:07:32;100775.50;;;12.53;100.00
12468;BME280;57850;52.922;6.256;2023-04-22T03:09:59;100787.34;;;12.62;100.00
12468;BME280;57850;52.922;6.256;2023-04-22T03:12:25;100780.19;;;12.65;100.00
12468;BME280;57850;52.922;6.256;2023-04-22T03:14:52;100784.00;;;12.58;100.00
12468;BME280;57850;52.922;6.256;2023-04-22T03:17:18;100810.06;;;12.41;100.00
12468;BME280;57850;52.922;6.256;2023-04-22T03:19:45;100781.16;;;12.63;100.00
12468;BME280;57850;52.922;6.256;2023-04-22T03:22:12;100789.56;;;12.51;100.00
12468;BME280;57850;52.922;6.256;2023-04-22T03:24:40;100790.84;;;12.42;100.00
12468;BME280;57850;52.922;6.256;2023-04-22T03:27:06;100845.97;;;11.97;100.00
12468;BME280;57850;52.922;6.256;2023-04-22T03:29:33;100806.63;;;12.20;100.00
12468;BME280;57850;52.922;6.256;2023-04-22T03:31:59;100774.84;;;12.29;100.00
12468;BME280;57850;52.922;6.256;2023-04-22T03:34:26;100768.16;;;12.43;100.00
12468;BME280;57850;52.922;6.256;2023-04-22T03:36:53;100779.53;;;12.42;100.00
12468;BME280;57850;52.922;6.256;2023-04-22T03:39:19;100788.56;;;12.34;100.00
12468;BME280;57850;52.922;6.256;2023-04-22T03:41:47;100853.00;;;11.75;100.00
12468;BME280;57850;52.922;6.256;2023-04-22T03:44:13;100795.84;;;12.08;100.00
12468;BME280;57850;52.922;6.256;2023-04-22T03:46:40;100773.63;;;12.18;100.00
12468;BME280;57850;52.922;6.256;2023-04-22T03:49:06;100765.28;;;12.28;100.00
12468;BME280;57850;52.922;6.256;2023-04-22T03:51:33;100756.63;;;12.47;100.00
12468;BME280;57850;52.922;6.256;2023-04-22T03:54:00;100761.59;;;12.53;100.00
12468;BME280;57850;52.922;6.256;2023-04-22T03:56:26;100857.34;;;11.76;100.00
12468;BME280;57850;52.922;6.256;2023-04-22T03:58:54;100829.06;;;11.86;100.00
12468;BME280;57850;52.922;6.256;2023-04-22T04:01:21;100868.66;;;11.53;100.00
12468;BME280;57850;52.922;6.256;2023-04-22T04:03:48;100833.53;;;11.60;100.00
12468;BME280;57850;52.922;6.256;2023-04-22T04:06:15;100806.16;;;11.70;100.00
12468;BME280;57850;52.922;6.256;2023-04-22T04:08:41;100765.78;;;11.98;100.00
12468;BME280;57850;52.922;6.256;2023-04-22T04:11:08;100738.41;;;12.25;100.00
12468;BME280;57850;52.922;6.256;2023-04-22T04:13:35;100753.97;;;12.28;100.00
12468;BME280;57850;52.922;6.256;2023-04-22T04:16:03;100765.78;;;12.18;100.00
12468;BME280;57850;52.922;6.256;2023-04-22T04:18:29;100759.69;;;12.17;100.00
12468;BME280;57850;52.922;6.256;2023-04-22T04:20:57;100748.19;;;12.21;100.00
12468;BME280;57850;52.922;6.256;2023-04-22T04:23:24;100749.13;;;12.39;100.00
12468;BME280;57850;52.922;6.256;2023-04-22T04:25:51;100781.16;;;12.05;100.00
12468;BME280;57850;52.922;6.256;2023-04-22T04:28:18;100827.53;;;11.58;100.00
12468;BME280;57850;52.922;6.256;2023-04-22T04:30:44;100805.31;;;11.70;100.00
12468;BME280;57850;52.922;6.256;2023-04-22T04:33:12;100807.50;;;11.80;100.00
12468;BME280;57850;52.922;6.256;2023-04-22T04:35:42;100852.31;;;10.58;100.00
12468;BME280;57850;52.922;6.256;2023-04-22T04:38:09;100809.97;;;11.18;100.00
12468;BME280;57850;52.922;6.256;2023-04-22T04:40:36;100761.22;;;11.61;100.00
12468;BME280;57850;52.922;6.256;2023-04-22T04:43:03;100730.75;;;12.02;100.00
12468;BME280;57850;52.922;6.256;2023-04-22T04:45:33;100772.03;;;11.94;100.00
12468;BME280;57850;52.922;6.256;2023-04-22T04:48:00;100778.13;;;11.94;100.00
12468;BME280;57850;52.922;6.256;2023-04-22T04:50:29;100768.22;;;12.02;100.00
12468;BME280;57850;52.922;6.256;2023-04-22T04:52:55;100771.72;;;12.01;100.00
12468;BME280;57850;52.922;6.256;2023-04-22T04:55:22;100773.03;;;12.11;100.00
12468;BME280;57850;52.922;6.256;2023-04-22T04:57:48;100763.19;;;12.37;100.00
12468;BME280;57850;52.922;6.256;2023-04-22T05:00:15;100770.16;;;12.17;100.00
12468;BME280;57850;52.922;6.256;2023-04-22T05:02:42;100769.25;;;12.18;100.00
12468;BME280;57850;52.922;6.256;2023-04-22T05:05:09;100792.34;;;12.09;100.00
12468;BME280;57850;52.922;6.256;2023-04-22T05:07:37;100795.25;;;12.01;100.00
12468;BME280;57850;52.922;6.256;2023-04-22T05:10:04;100809.50;;;11.94;100.00
12468;BME280;57850;52.922;6.256;2023-04-22T05:12:31;100798.28;;;11.92;100.00
12468;BME280;57850;52.922;6.256;2023-04-22T05:14:58;100820.19;;;11.68;100.00
12468;BME280;57850;52.922;6.256;2023-04-22T05:17:24;100810.38;;;11.74;100.00
12468;BME280;57850;52.922;6.256;2023-04-22T05:19:51;100820.09;;;11.69;100.00
12468;BME280;57850;52.922;6.256;2023-04-22T05:22:17;100823.59;;;11.48;100.00
12468;BME280;57850;52.922;6.256;2023-04-22T05:24:45;100807.53;;;11.57;100.00
12468;BME280;57850;52.922;6.256;2023-04-22T05:27:12;100797.56;;;11.67;100.00
12468;BME280;57850;52.922;6.256;2023-04-22T05:29:38;100789.38;;;11.76;100.00
12468;BME280;57850;52.922;6.256;2023-04-22T05:32:05;100798.25;;;11.72;100.00
12468;BME280;57850;52.922;6.256;2023-04-22T05:34:33;100797.28;;;11.74;100.00
12468;BME280;57850;52.922;6.256;2023-04-22T05:37:01;100783.50;;;11.91;100.00
12468;BME280;57850;52.922;6.256;2023-04-22T05:39:27;100826.63;;;11.81;100.00
12468;BME280;57850;52.922;6.256;2023-04-22T05:41:55;100809.03;;;11.85;100.00
12468;BME280;57850;52.922;6.256;2023-04-22T05:44:22;100813.78;;;11.75;100.00
12468;BME280;57850;52.922;6.256;2023-04-22T05:46:48;100839.75;;;11.58;100.00
12468;BME280;57850;52.922;6.256;2023-04-22T05:49:15;100819.84;;;11.77;100.00
12468;BME280;57850;52.922;6.256;2023-04-22T05:51:41;100813.19;;;11.90;100.00
12468;BME280;57850;52.922;6.256;2023-04-22T05:54:08;100800.22;;;12.07;100.00
12468;BME280;57850;52.922;6.256;2023-04-22T05:56:34;100800.72;;;12.15;100.00
12468;BME280;57850;52.922;6.256;2023-04-22T05:59:02;100777.94;;;12.38;100.00
12468;BME280;57850;52.922;6.256;2023-04-22T06:01:29;100795.88;;;12.47;100.00
12468;BME280;57850;52.922;6.256;2023-04-22T06:03:55;100775.34;;;12.56;100.00
12468;BME280;57850;52.922;6.256;2023-04-22T06:06:23;100776.59;;;12.68;100.00
12468;BME280;57850;52.922;6.256;2023-04-22T06:08:50;100780.19;;;12.84;100.00
12468;BME280;57850;52.922;6.256;2023-04-22T06:11:17;100779.97;;;12.88;100.00
12468;BME280;57850;52.922;6.256;2023-04-22T06:13:43;100793.56;;;12.97;100.00
12468;BME280;57850;52.922;6.256;2023-04-22T06:16:11;100784.63;;;12.82;100.00
12468;BME280;57850;52.922;6.256;2023-04-22T06:18:38;100778.91;;;12.74;100.00
12468;BME280;57850;52.922;6.256;2023-04-22T06:21:05;100753.44;;;12.96;100.00
12468;BME280;57850;52.922;6.256;2023-04-22T06:23:31;100758.81;;;12.93;100.00
12468;BME280;57850;52.922;6.256;2023-04-22T06:25:58;100748.19;;;12.96;100.00
12468;BME280;57850;52.922;6.256;2023-04-22T06:28:25;100720.75;;;13.22;100.00
12468;BME280;57850;52.922;6.256;2023-04-22T06:30:52;100733.47;;;13.12;100.00
12468;BME280;57850;52.922;6.256;2023-04-22T06:33:20;100718.47;;;13.50;100.00
12468;BME280;57850;52.922;6.256;2023-04-22T06:35:46;100749.09;;;13.14;100.00
12468;BME280;57850;52.922;6.256;2023-04-22T06:38:13;100718.25;;;13.55;100.00
12468;BME280;57850;52.922;6.256;2023-04-22T06:40:39;100726.19;;;13.87;100.00
12468;BME280;57850;52.922;6.256;2023-04-22T06:43:06;100746.31;;;13.53;100.00
12468;BME280;57850;52.922;6.256;2023-04-22T06:45:32;100725.41;;;13.68;100.00
12468;BME280;57850;52.922;6.256;2023-04-22T06:47:59;100704.81;;;14.11;100.00
12468;BME280;57850;52.922;6.256;2023-04-22T06:50:27;100712.03;;;14.23;100.00
12468;BME280;57850;52.922;6.256;2023-04-22T06:52:54;100744.28;;;14.09;100.00
12468;BME280;57850;52.922;6.256;2023-04-22T06:55:21;100743.31;;;14.27;100.00
12468;BME280;57850;52.922;6.256;2023-04-22T06:57:48;100775.59;;;14.12;100.00
12468;BME280;57850;52.922;6.256;2023-04-22T07:00:15;100752.75;;;14.14;100.00
12468;BME280;57850;52.922;6.256;2023-04-22T07:02:42;100743.28;;;14.44;100.00
12468;BME280;57850;52.922;6.256;2023-04-22T07:05:08;100746.69;;;14.62;100.00
12468;BME280;57850;52.922;6.256;2023-04-22T07:07:36;100755.44;;;14.63;100.00
12468;BME280;57850;52.922;6.256;2023-04-22T07:10:04;100756.19;;;14.65;100.00
12468;BME280;57850;52.922;6.256;2023-04-22T07:12:31;100739.75;;;14.77;100.00
12468;BME280;57850;52.922;6.256;2023-04-22T07:14:58;100767.22;;;14.71;100.00
12468;BME280;57850;52.922;6.256;2023-04-22T07:17:24;100730.44;;;15.02;100.00
12468;BME280;57850;52.922;6.256;2023-04-22T07:19:50;100744.75;;;15.13;100.00
12468;BME280;57850;52.922;6.256;2023-04-22T07:22:17;100767.03;;;15.21;100.00
12468;BME280;57850;52.922;6.256;2023-04-22T07:24:45;100803.16;;;15.18;100.00
12468;BME280;57850;52.922;6.256;2023-04-22T07:27:11;100763.00;;;15.45;100.00
12468;BME280;57850;52.922;6.256;2023-04-22T07:29:38;100766.47;;;15.62;100.00
12468;BME280;57850;52.922;6.256;2023-04-22T07:32:04;100772.22;;;15.68;100.00
12468;BME280;57850;52.922;6.256;2023-04-22T07:34:31;100784.84;;;15.91;100.00
12468;BME280;57850;52.922;6.256;2023-04-22T07:36:58;100798.97;;;15.61;100.00
12468;BME280;57850;52.922;6.256;2023-04-22T07:39:24;100805.41;;;15.39;100.00
12468;BME280;57850;52.922;6.256;2023-04-22T07:41:52;100792.94;;;15.43;100.00
12468;BME280;57850;52.922;6.256;2023-04-22T07:44:20;100804.56;;;15.39;100.00
12468;BME280;57850;52.922;6.256;2023-04-22T07:46:47;100798.81;;;15.48;100.00
12468;BME280;57850;52.922;6.256;2023-04-22T07:49:14;100806.94;;;15.43;100.00
12468;BME280;57850;52.922;6.256;2023-04-22T07:51:42;100776.69;;;15.96;100.00
12468;BME280;57850;52.922;6.256;2023-04-22T07:54:08;100800.94;;;16.01;100.00
12468;BME280;57850;52.922;6.256;2023-04-22T07:56:35;100828.00;;;15.59;100.00
12468;BME280;57850;52.922;6.256;2023-04-22T07:59:03;100805.03;;;15.77;100.00
12468;BME280;57850;52.922;6.256;2023-04-22T08:01:30;100806.56;;;15.81;100.00
12468;BME280;57850;52.922;6.256;2023-04-22T08:03:56;100799.94;;;16.03;100.00
12468;BME280;57850;52.922;6.256;2023-04-22T08:06:23;100811.75;;;15.67;100.00
12468;BME280;57850;52.922;6.256;2023-04-22T08:08:50;100815.94;;;16.00;100.00
12468;BME280;57850;52.922;6.256;2023-04-22T08:11:16;100810.28;;;16.06;100.00
12468;BME280;57850;52.922;6.256;2023-04-22T08:13:43;100805.44;;;15.85;100.00
12468;BME280;57850;52.922;6.256;2023-04-22T08:16:11;100781.72;;;16.15;100.00
12468;BME280;57850;52.922;6.256;2023-04-22T08:18:37;100807.19;;;16.14;100.00
12468;BME280;57850;52.922;6.256;2023-04-22T08:21:04;100801.50;;;16.50;100.00
12468;BME280;57850;52.922;6.256;2023-04-22T08:23:31;100831.22;;;16.38;100.00
12468;BME280;57850;52.922;6.256;2023-04-22T08:25:58;100818.44;;;16.32;100.00
12468;BME280;57850;52.922;6.256;2023-04-22T08:28:24;100829.41;;;16.38;100.00
12468;BME280;57850;52.922;6.256;2023-04-22T08:30:51;100877.19;;;16.32;100.00
12468;BME280;57850;52.922;6.256;2023-04-22T08:33:19;100863.94;;;16.48;100.00
12468;BME280;57850;52.922;6.256;2023-04-22T08:35:46;100831.94;;;17.25;100.00
12468;BME280;57850;52.922;6.256;2023-04-22T08:38:12;100875.69;;;17.00;100.00
12468;BME280;57850;52.922;6.256;2023-04-22T08:40:40;100891.84;;;16.80;100.00
12468;BME280;57850;52.922;6.256;2023-04-22T08:43:07;100894.22;;;16.85;100.00
12468;BME280;57850;52.922;6.256;2023-04-22T08:45:37;100904.97;;;16.82;100.00
12468;BME280;57850;52.922;6.256;2023-04-22T08:48:05;100887.81;;;17.03;100.00
12468;BME280;57850;52.922;6.256;2023-04-22T08:50:36;100889.66;;;17.29;100.00
12468;BME280;57850;52.922;6.256;2023-04-22T08:53:03;100878.28;;;17.29;100.00
12468;BME280;57850;52.922;6.256;2023-04-22T08:55:30;100874.44;;;17.61;100.00
12468;BME280;57850;52.922;6.256;2023-04-22T08:57:59;100883.63;;;17.41;100.00
12468;BME280;57850;52.922;6.256;2023-04-22T09:00:26;100857.41;;;18.31;100.00
12468;BME280;57850;52.922;6.256;2023-04-22T09:02:52;100898.94;;;17.90;100.00
12468;BME280;57850;52.922;6.256;2023-04-22T09:05:21;100894.56;;;18.55;100.00
12468;BME280;57850;52.922;6.256;2023-04-22T09:07:51;100876.06;;;18.67;100.00
12468;BME280;57850;52.922;6.256;2023-04-22T09:10:18;100913.94;;;18.29;100.00
12468;BME280;57850;52.922;6.256;2023-04-22T09:12:45;100918.56;;;18.64;100.00
12468;BME280;57850;52.922;6.256;2023-04-22T09:15:12;100908.94;;;19.01;100.00
12468;BME280;57850;52.922;6.256;2023-04-22T09:17:39;100874.72;;;19.84;100.00
12468;BME280;57850;52.922;6.256;2023-04-22T09:20:08;100924.22;;;19.34;100.00
12468;BME280;57850;52.922;6.256;2023-04-22T09:22:38;100925.66;;;18.89;100.00
12468;BME280;57850;52.922;6.256;2023-04-22T09:25:14;100913.94;;;19.42;100.00
12468;BME280;57850;52.922;6.256;2023-04-22T09:27:41;100906.19;;;19.39;100.00
12468;BME280;57850;52.922;6.256;2023-04-22T09:30:09;100887.06;;;19.72;100.00
12468;BME280;57850;52.922;6.256;2023-04-22T09:32:35;100877.88;;;19.65;100.00
12468;BME280;57850;52.922;6.256;2023-04-22T09:35:02;100863.13;;;20.08;100.00
12468;BME280;57850;52.922;6.256;2023-04-22T09:37:29;100834.38;;;20.61;100.00
12468;BME280;57850;52.922;6.256;2023-04-22T09:39:57;100844.25;;;20.59;100.00
12468;BME280;57850;52.922;6.256;2023-04-22T09:42:25;100864.38;;;20.15;100.00
12468;BME280;57850;52.922;6.256;2023-04-22T09:44:52;100881.94;;;19.58;100.00
12468;BME280;57850;52.922;6.256;2023-04-22T09:47:19;100862.75;;;20.02;100.00
12468;BME280;57850;52.922;6.256;2023-04-22T09:49:46;100879.41;;;19.80;100.00
12468;BME280;57850;52.922;6.256;2023-04-22T09:52:20;100856.03;;;20.33;100.00
12468;BME280;57850;52.922;6.256;2023-04-22T09:54:48;100827.50;;;21.14;100.00
12468;BME280;57850;52.922;6.256;2023-04-22T09:57:16;100808.44;;;21.95;100.00
12468;BME280;57850;52.922;6.256;2023-04-22T09:59:43;100813.75;;;21.83;100.00
12468;BME280;57850;52.922;6.256;2023-04-22T10:02:10;100813.31;;;21.78;100.00
12468;BME280;57850;52.922;6.256;2023-04-22T10:04:36;100775.50;;;22.98;100.00
12468;BME280;57850;52.922;6.256;2023-04-22T10:07:03;100735.19;;;23.88;100.00
12468;BME280;57850;52.922;6.256;2023-04-22T10:09:30;100717.09;;;23.82;100.00
12468;BME280;57850;52.922;6.256;2023-04-22T10:11:58;100721.50;;;24.30;100.00
12468;BME280;57850;52.922;6.256;2023-04-22T10:14:24;100782.88;;;22.54;100.00
12468;BME280;57850;52.922;6.256;2023-04-22T10:16:55;100789.00;;;22.45;100.00
12468;BME280;57850;52.922;6.256;2023-04-22T10:19:24;100783.97;;;22.42;100.00
12468;BME280;57850;52.922;6.256;2023-04-22T10:21:54;100705.19;;;24.60;100.00
12468;BME280;57850;52.922;6.256;2023-04-22T10:24:24;100705.06;;;24.25;100.00
12468;BME280;57850;52.922;6.256;2023-04-22T10:26:54;100697.00;;;24.71;100.00
12468;BME280;57850;52.922;6.256;2023-04-22T10:29:22;100684.97;;;24.85;100.00
12468;BME280;57850;52.922;6.256;2023-04-22T10:31:55;100651.94;;;25.82;100.00
12468;BME280;57850;52.922;6.256;2023-04-22T10:34:23;100626.44;;;25.62;100.00
12468;BME280;57850;52.922;6.256;2023-04-22T10:36:57;100694.03;;;24.00;100.00
12468;BME280;57850;52.922;6.256;2023-04-22T10:39:25;100641.19;;;25.13;100.00
12468;BME280;57850;52.922;6.256;2023-04-22T10:41:55;100652.38;;;24.64;100.00
12468;BME280;57850;52.922;6.256;2023-04-22T10:44:26;100637.69;;;24.95;100.00
12468;BME280;57850;52.922;6.256;2023-04-22T10:46:56;100627.50;;;25.51;100.00
12468;BME280;57850;52.922;6.256;2023-04-22T10:49:25;100668.91;;;24.13;100.00
12468;BME280;57850;52.922;6.256;2023-04-22T10:51:52;100665.13;;;24.42;100.00
12468;BME280;57850;52.922;6.256;2023-04-22T10:54:57;100633.44;;;25.45;100.00
12468;BME280;57850;52.922;6.256;2023-04-22T10:57:30;100569.91;;;25.91;100.00
12468;BME280;57850;52.922;6.256;2023-04-22T11:00:16;100624.44;;;24.85;100.00
12468;BME280;57850;52.922;6.256;2023-04-22T11:02:45;100622.94;;;25.26;100.00
12468;BME280;57850;52.922;6.256;2023-04-22T11:05:20;100647.94;;;24.72;100.00
12468;BME280;57850;52.922;6.256;2023-04-22T11:07:48;100578.81;;;25.66;100.00
12468;BME280;57850;52.922;6.256;2023-04-22T11:10:32;100553.88;;;25.91;100.00
12468;BME280;57850;52.922;6.256;2023-04-22T11:13:01;100553.47;;;26.12;100.00
12468;BME280;57850;52.922;6.256;2023-04-22T11:15:34;100517.00;;;26.93;100.00
12468;BME280;57850;52.922;6.256;2023-04-22T11:18:07;100519.09;;;26.41;100.00
12468;BME280;57850;52.922;6.256;2023-04-22T11:20:35;100563.31;;;26.03;100.00
12468;BME280;57850;52.922;6.256;2023-04-22T11:23:02;100577.66;;;26.02;100.00
12468;BME280;57850;52.922;6.256;2023-04-22T11:25:29;100600.78;;;25.08;100.00
12468;BME280;57850;52.922;6.256;2023-04-22T11:27:57;100574.28;;;25.92;100.00
12468;BME280;57850;52.922;6.256;2023-04-22T11:30:25;100576.47;;;25.96;100.00
12468;BME280;57850;52.922;6.256;2023-04-22T11:32:52;100571.47;;;26.01;100.00
12468;BME280;57850;52.922;6.256;2023-04-22T11:35:22;100603.47;;;25.34;100.00
12468;BME280;57850;52.922;6.256;2023-04-22T11:37:50;100584.84;;;26.43;100.00
12468;BME280;57850;52.922;6.256;2023-04-22T11:40:18;100604.03;;;25.20;100.00
12468;BME280;57850;52.922;6.256;2023-04-22T11:42:46;100627.44;;;24.73;100.00
12468;BME280;57850;52.922;6.256;2023-04-22T11:45:14;100596.41;;;25.25;100.00
12468;BME280;57850;52.922;6.256;2023-04-22T11:47:40;100681.53;;;23.55;100.00
12468;BME280;57850;52.922;6.256;2023-04-22T11:50:09;100709.09;;;23.06;100.00
12468;BME280;57850;52.922;6.256;2023-04-22T11:52:52;100671.72;;;23.65;100.00
12468;BME280;57850;52.922;6.256;2023-04-22T11:55:21;100668.06;;;23.56;100.00
12468;BME280;57850;52.922;6.256;2023-04-22T11:57:54;100710.94;;;23.05;100.00
12468;BME280;57850;52.922;6.256;2023-04-22T12:00:22;100707.75;;;23.21;100.00
12468;BME280;57850;52.922;6.256;2023-04-22T12:02:57;100689.22;;;23.38;100.00
12468;BME280;57850;52.922;6.256;2023-04-22T12:05:35;100678.41;;;23.69;100.00
12468;BME280;57850;52.922;6.256;2023-04-22T12:08:07;100710.34;;;22.82;100.00
12468;BME280;57850;52.922;6.256;2023-04-22T12:10:39;100640.59;;;24.12;100.00
12468;BME280;57850;52.922;6.256;2023-04-22T12:13:06;100664.69;;;23.54;100.00
12468;BME280;57850;52.922;6.256;2023-04-22T12:15:38;100624.66;;;24.47;100.00
12468;BME280;57850;52.922;6.256;2023-04-22T12:18:04;100582.31;;;25.66;100.00
12468;BME280;57850;52.922;6.256;2023-04-22T12:20:33;100562.75;;;25.58;100.00
12468;BME280;57850;52.922;6.256;2023-04-22T12:22:59;100608.09;;;24.43;100.00
12468;BME280;57850;52.922;6.256;2023-04-22T12:25:27;100622.56;;;24.23;100.00
12468;BME280;57850;52.922;6.256;2023-04-22T12:27:54;100643.28;;;23.92;100.00
12468;BME280;57850;52.922;6.256;2023-04-22T12:30:21;100671.56;;;23.57;100.00
12468;BME280;57850;52.922;6.256;2023-04-22T12:32:49;100685.59;;;23.59;100.00
12468;BME280;57850;52.922;6.256;2023-04-22T12:35:16;100666.16;;;23.95;100.00
12468;BME280;57850;52.922;6.256;2023-04-22T12:37:42;100695.09;;;23.13;100.00
12468;BME280;57850;52.922;6.256;2023-04-22T12:40:09;100719.50;;;22.99;100.00
12468;BME280;57850;52.922;6.256;2023-04-22T12:42:37;100696.53;;;23.27;100.00